sensor_id;sensor_type;location;lat;lon;timestamp;P1;durP1;ratioP1;P2;durP2;ratioP2
8260;SDS011;64115;50.170;8.242;2023-05-21T00:01:15;20.03;;;14.57;;
8260;SDS011;64115;50.170;8.242;2023-05-21T00:03:42;17.97;;;14.73;;
8260;SDS011;64115;50.170;8.242;2023-05-21T00:06:10;18.00;;;14.20;;
8260;SDS011;64115;50.170;8.242;2023-05-21T00:08:41;17.77;;;13.93;;
8260;SDS011;64115;50.170;8.242;2023-05-21T00:11:08;18.03;;;14.30;;
8260;SDS011;64115;50.170;8.242;2023-05-21T00:13:35;16.70;;;13.97;;
8260;SDS011;64115;50.170;8.242;2023-05-21T00:16:02;19.50;;;14.57;;
8260;SDS011;64115;50.170;8.242;2023-05-21T00:18:30;17.03;;;14.67;;
8260;SDS011;64115;50.170;8.242;2023-05-21T00:20:58;19.47;;;14.97;;
8260;SDS011;64115;50.170;8.242;2023-05-21T00:23:25;18.17;;;13.57;;
8260;SDS011;64115;50.170;8.242;2023-05-21T00:25:54;16.77;;;14.23;;
8260;SDS011;64115;50.170;8.242;2023-05-21T00:28:21;16.73;;;13.90;;
8260;SDS011;64115;50.170;8.242;2023-05-21T00:30:48;18.50;;;14.33;;
8260;SDS011;64115;50.170;8.242;2023-05-21T00:33:15;16.30;;;13.93;;
8260;SDS011;64115;50.170;8.242;2023-05-21T00:35:45;16.23;;;13.93;;
8260;SDS011;64115;50.170;8.242;2023-05-21T00:38:12;18.50;;;13.67;;
8260;SDS011;64115;50.170;8.242;2023-05-21T00:40:41;16.50;;;13.90;;
8260;SDS011;64115;50.170;8.242;2023-05-21T00:43:10;18.03;;;13.37;;
8260;SDS011;64115;50.170;8.242;2023-05-21T00:45:39;18.67;;;14.80;;
8260;SDS011;64115;50.170;8.242;2023-05-21T00:48:08;17.73;;;13.67;;
8260;SDS011;64115;50.170;8.242;2023-05-21T00:50:36;19.13;;;14.17;;
8260;SDS011;64115;50.170;8.242;2023-05-21T00:53:04;19.93;;;13.60;;
8260;SDS011;64115;50.170;8.242;2023-05-21T00:55:33;15.17;;;13.57;;
8260;SDS011;64115;50.170;8.242;2023-05-21T00:58:01;16.90;;;14.70;;
8260;SDS011;64115;50.170;8.242;2023-05-21T01:00:30;16.70;;;13.53;;
8260;SDS011;64115;50.170;8.242;2023-05-21T01:02:59;18.20;;;13.53;;
8260;SDS011;64115;50.170;8.242;2023-05-21T01:05:26;15.90;;;13.33;;
8260;SDS011;64115;50.170;8.242;2023-05-21T01:07:54;18.90;;;14.07;;
8260;SDS011;64115;50.170;8.242;2023-05-21T01:10:22;18.87;;;15.07;;
8260;SDS011;64115;50.170;8.242;2023-05-21T01:12:50;19.53;;;14.53;;
8260;SDS011;64115;50.170;8.242;2023-05-21T01:15:18;18.97;;;14.47;;
8260;SDS011;64115;50.170;8.242;2023-05-21T01:17:46;17.63;;;14.00;;
8260;SDS011;64115;50.170;8.242;2023-05-21T01:20:15;18.27;;;14.03;;
8260;SDS011;64115;50.170;8.242;2023-05-21T01:22:52;18.30;;;14.07;;
8260;SDS011;64115;50.170;8.242;2023-05-21T01:25:20;18.83;;;15.43;;
8260;SDS011;64115;50.170;8.242;2023-05-21T01:27:48;17.80;;;14.10;;
8260;SDS011;64115;50.170;8.242;2023-05-21T01:30:15;15.93;;;14.00;;
8260;SDS011;64115;50.170;8.242;2023-05-21T01:32:44;18.00;;;14.80;;
8260;SDS011;64115;50.170;8.242;2023-05-21T01:35:16;19.67;;;14.77;;
8260;SDS011;64115;50.170;8.242;2023-05-21T01:37:48;17.90;;;14.00;;
8260;SDS011;64115;50.170;8.242;2023-05-21T01:40:22;18.43;;;14.57;;
8260;SDS011;64115;50.170;8.242;2023-05-21T01:42:56;18.23;;;14.00;;
8260;SDS011;64115;50.170;8.242;2023-05-21T01:45:24;19.03;;;14.90;;
8260;SDS011;64115;50.170;8.242;2023-05-21T01:47:53;19.17;;;13.83;;
8260;SDS011;64115;50.170;8.242;2023-05-21T01:50:21;20.03;;;14.53;;
8260;SDS011;64115;50.170;8.242;2023-05-21T01:52:50;20.93;;;14.27;;
8260;SDS011;64115;50.170;8.242;2023-05-21T01:55:18;16.37;;;13.43;;
8260;SDS011;64115;50.170;8.242;2023-05-21T01:57:50;19.70;;;15.13;;
8260;SDS011;64115;50.170;8.242;2023-05-21T02:00:18;17.80;;;13.60;;
8260;SDS011;64115;50.170;8.242;2023-05-21T02:02:46;15.60;;;13.70;;
8260;SDS011;64115;50.170;8.242;2023-05-21T02:05:13;16.77;;;14.03;;
8260;SDS011;64115;50.170;8.242;2023-05-21T02:07:40;17.80;;;14.63;;
8260;SDS011;64115;50.170;8.242;2023-05-21T02:10:09;20.10;;;14.90;;
8260;SDS011;64115;50.170;8.242;2023-05-21T02:12:37;17.67;;;13.90;;
8260;SDS011;64115;50.170;8.242;2023-05-21T02:15:07;15.70;;;13.30;;
8260;SDS011;64115;50.170;8.242;2023-05-21T02:17:34;15.87;;;12.47;;
8260;SDS011;64115;50.170;8.242;2023-05-21T02:20:02;14.83;;;12.93;;
8260;SDS011;64115;50.170;8.242;2023-05-21T02:22:35;14.03;;;12.23;;
8260;SDS011;64115;50.170;8.242;2023-05-21T02:25:03;15.43;;;12.23;;
8260;SDS011;64115;50.170;8.242;2023-05-21T02:27:31;16.57;;;12.73;;
8260;SDS011;64115;50.170;8.242;2023-05-21T02:29:59;15.23;;;13.37;;
8260;SDS011;64115;50.170;8.242;2023-05-21T02:32:27;18.50;;;14.60;;
8260;SDS011;64115;50.170;8.242;2023-05-21T02:34:55;21.27;;;15.33;;
8260;SDS011;64115;50.170;8.242;2023-05-21T02:37:23;17.87;;;13.53;;
8260;SDS011;64115;50.170;8.242;2023-05-21T02:39:51;17.53;;;14.03;;
8260;SDS011;64115;50.170;8.242;2023-05-21T02:42:19;19.13;;;14.63;;
8260;SDS011;64115;50.170;8.242;2023-05-21T02:44:46;17.17;;;14.47;;
8260;SDS011;64115;50.170;8.242;2023-05-21T02:47:14;18.43;;;13.67;;
8260;SDS011;64115;50.170;8.242;2023-05-21T02:49:42;22.27;;;14.67;;
8260;SDS011;64115;50.170;8.242;2023-05-21T02:52:09;18.13;;;13.93;;
8260;SDS011;64115;50.170;8.242;2023-05-21T02:54:36;18.23;;;14.80;;
8260;SDS011;64115;50.170;8.242;2023-05-21T02:57:04;18.93;;;13.93;;
8260;SDS011;64115;50.170;8.242;2023-05-21T02:59:31;17.87;;;13.80;;
8260;SDS011;64115;50.170;8.242;2023-05-21T03:01:58;18.40;;;13.00;;
8260;SDS011;64115;50.170;8.242;2023-05-21T03:04:25;17.77;;;13.53;;
8260;SDS011;64115;50.170;8.242;2023-05-21T03:06:54;17.37;;;13.20;;
8260;SDS011;64115;50.170;8.242;2023-05-21T03:09:22;16.67;;;12.97;;
8260;SDS011;64115;50.170;8.242;2023-05-21T03:11:50;15.40;;;12.97;;
8260;SDS011;64115;50.170;8.242;2023-05-21T03:14:17;16.00;;;13.40;;
8260;SDS011;64115;50.170;8.242;2023-05-21T03:16:44;17.13;;;13.77;;
8260;SDS011;64115;50.170;8.242;2023-05-21T03:19:11;16.37;;;14.07;;
8260;SDS011;64115;50.170;8.242;2023-05-21T03:21:38;18.30;;;14.33;;
8260;SDS011;64115;50.170;8.242;2023-05-21T03:24:07;16.93;;;14.40;;
8260;SDS011;64115;50.170;8.242;2023-05-21T03:26:37;16.73;;;13.17;;
8260;SDS011;64115;50.170;8.242;2023-05-21T03:29:04;18.87;;;14.33;;
8260;SDS011;64115;50.170;8.242;2023-05-21T03:31:31;18.90;;;13.90;;
8260;SDS011;64115;50.170;8.242;2023-05-21T03:33:59;17.20;;;13.97;;
8260;SDS011;64115;50.170;8.242;2023-05-21T03:36:26;17.40;;;14.00;;
8260;SDS011;64115;50.170;8.242;2023-05-21T03:38:53;17.77;;;14.27;;
8260;SDS011;64115;50.170;8.242;2023-05-21T03:41:21;15.97;;;13.10;;
8260;SDS011;64115;50.170;8.242;2023-05-21T03:43:48;15.03;;;12.33;;
8260;SDS011;64115;50.170;8.242;2023-05-21T03:46:15;14.37;;;11.97;;
8260;SDS011;64115;50.170;8.242;2023-05-21T03:48:42;14.37;;;12.17;;
8260;SDS011;64115;50.170;8.242;2023-05-21T03:51:10;14.83;;;13.00;;
8260;SDS011;64115;50.170;8.242;2023-05-21T03:53:37;16.73;;;13.37;;
8260;SDS011;64115;50.170;8.242;2023-05-21T03:56:05;15.10;;;12.63;;
8260;SDS011;64115;50.170;8.242;2023-05-21T03:58:34;17.20;;;12.60;;
8260;SDS011;64115;50.170;8.242;2023-05-21T04:01:02;16.53;;;12.87;;
8260;SDS011;64115;50.170;8.242;2023-05-21T04:03:29;17.57;;;12.87;;
8260;SDS011;64115;50.170;8.242;2023-05-21T04:05:59;17.20;;;13.30;;
8260;SDS011;64115;50.170;8.242;2023-05-21T04:08:26;15.37;;;12.73;;
8260;SDS011;64115;50.170;8.242;2023-05-21T04:10:54;14.90;;;13.30;;
8260;SDS011;64115;50.170;8.242;2023-05-21T04:13:21;15.77;;;13.03;;
8260;SDS011;64115;50.170;8.242;2023-05-21T04:15:50;16.73;;;13.57;;
8260;SDS011;64115;50.170;8.242;2023-05-21T04:18:18;17.37;;;12.60;;
8260;SDS011;64115;50.170;8.242;2023-05-21T04:20:47;16.23;;;13.53;;
8260;SDS011;64115;50.170;8.242;2023-05-21T04:23:15;18.83;;;13.40;;
8260;SDS011;64115;50.170;8.242;2023-05-21T04:25:42;15.07;;;13.30;;
8260;SDS011;64115;50.170;8.242;2023-05-21T04:28:09;16.00;;;12.87;;
8260;SDS011;64115;50.170;8.242;2023-05-21T04:30:36;15.23;;;12.33;;
8260;SDS011;64115;50.170;8.242;2023-05-21T04:33:05;14.20;;;12.20;;
8260;SDS011;64115;50.170;8.242;2023-05-21T04:35:33;17.27;;;12.77;;
8260;SDS011;64115;50.170;8.242;2023-05-21T04:38:00;15.33;;;12.47;;
8260;SDS011;64115;50.170;8.242;2023-05-21T04:40:29;15.37;;;12.43;;
8260;SDS011;64115;50.170;8.242;2023-05-21T04:42:56;14.20;;;12.03;;
8260;SDS011;64115;50.170;8.242;2023-05-21T04:45:24;19.73;;;13.17;;
8260;SDS011;64115;50.170;8.242;2023-05-21T04:47:52;15.13;;;12.47;;
8260;SDS011;64115;50.170;8.242;2023-05-21T04:50:25;14.60;;;12.23;;
8260;SDS011;64115;50.170;8.242;2023-05-21T04:52:54;13.97;;;12.33;;
8260;SDS011;64115;50.170;8.242;2023-05-21T04:55:22;15.73;;;13.33;;
8260;SDS011;64115;50.170;8.242;2023-05-21T04:57:50;15.33;;;12.40;;
8260;SDS011;64115;50.170;8.242;2023-05-21T05:00:17;14.63;;;12.27;;
8260;SDS011;64115;50.170;8.242;2023-05-21T05:02:45;16.03;;;13.07;;
8260;SDS011;64115;50.170;8.242;2023-05-21T05:05:12;17.20;;;12.37;;
8260;SDS011;64115;50.170;8.242;2023-05-21T05:07:41;14.63;;;12.97;;
8260;SDS011;64115;50.170;8.242;2023-05-21T05:10:08;16.23;;;12.57;;
8260;SDS011;64115;50.170;8.242;2023-05-21T05:12:35;15.13;;;12.43;;
8260;SDS011;64115;50.170;8.242;2023-05-21T05:15:03;14.03;;;12.40;;
8260;SDS011;64115;50.170;8.242;2023-05-21T05:17:30;13.37;;;11.97;;
8260;SDS011;64115;50.170;8.242;2023-05-21T05:19:58;12.87;;;11.30;;
8260;SDS011;64115;50.170;8.242;2023-05-21T05:22:25;12.73;;;11.27;;
8260;SDS011;64115;50.170;8.242;2023-05-21T05:24:54;12.97;;;11.33;;
8260;SDS011;64115;50.170;8.242;2023-05-21T05:27:21;14.77;;;12.17;;
8260;SDS011;64115;50.170;8.242;2023-05-21T05:29:48;15.47;;;12.40;;
8260;SDS011;64115;50.170;8.242;2023-05-21T05:32:15;13.80;;;11.93;;
8260;SDS011;64115;50.170;8.242;2023-05-21T05:34:43;12.33;;;11.00;;
8260;SDS011;64115;50.170;8.242;2023-05-21T05:37:11;13.60;;;11.80;;
8260;SDS011;64115;50.170;8.242;2023-05-21T05:39:38;12.93;;;11.53;;
8260;SDS011;64115;50.170;8.242;2023-05-21T05:42:06;13.40;;;12.00;;
8260;SDS011;64115;50.170;8.242;2023-05-21T05:44:33;14.17;;;11.53;;
8260;SDS011;64115;50.170;8.242;2023-05-21T05:47:00;14.03;;;11.87;;
8260;SDS011;64115;50.170;8.242;2023-05-21T05:49:27;14.80;;;11.83;;
8260;SDS011;64115;50.170;8.242;2023-05-21T05:51:55;13.00;;;11.70;;
8260;SDS011;64115;50.170;8.242;2023-05-21T05:54:22;13.13;;;11.67;;
8260;SDS011;64115;50.170;8.242;2023-05-21T05:56:49;14.37;;;11.50;;
8260;SDS011;64115;50.170;8.242;2023-05-21T05:59:17;13.23;;;11.53;;
8260;SDS011;64115;50.170;8.242;2023-05-21T06:01:44;14.50;;;11.37;;
8260;SDS011;64115;50.170;8.242;2023-05-21T06:04:12;12.97;;;11.50;;
8260;SDS011;64115;50.170;8.242;2023-05-21T06:06:40;14.20;;;11.57;;
8260;SDS011;64115;50.170;8.242;2023-05-21T06:09:07;14.53;;;10.67;;
8260;SDS011;64115;50.170;8.242;2023-05-21T06:11:35;13.67;;;11.77;;
8260;SDS011;64115;50.170;8.242;2023-05-21T06:14:01;13.47;;;12.07;;
8260;SDS011;64115;50.170;8.242;2023-05-21T06:16:30;12.33;;;11.03;;
8260;SDS011;64115;50.170;8.242;2023-05-21T06:18:58;13.03;;;11.23;;
8260;SDS011;64115;50.170;8.242;2023-05-21T06:21:25;11.60;;;10.50;;
8260;SDS011;64115;50.170;8.242;2023-05-21T06:23:52;12.10;;;10.73;;
8260;SDS011;64115;50.170;8.242;2023-05-21T06:26:28;12.13;;;10.83;;
8260;SDS011;64115;50.170;8.242;2023-05-21T06:28:55;11.30;;;10.20;;
8260;SDS011;64115;50.170;8.242;2023-05-21T06:31:22;11.47;;;10.27;;
8260;SDS011;64115;50.170;8.242;2023-05-21T06:33:51;16.83;;;10.00;;
8260;SDS011;64115;50.170;8.242;2023-05-21T06:36:18;10.43;;;9.43;;
8260;SDS011;64115;50.170;8.242;2023-05-21T06:38:46;11.67;;;10.57;;
8260;SDS011;64115;50.170;8.242;2023-05-21T06:41:13;13.37;;;10.07;;
8260;SDS011;64115;50.170;8.242;2023-05-21T06:43:50;10.67;;;9.60;;
8260;SDS011;64115;50.170;8.242;2023-05-21T06:46:17;10.33;;;9.23;;
8260;SDS011;64115;50.170;8.242;2023-05-21T06:48:45;10.50;;;9.50;;
8260;SDS011;64115;50.170;8.242;2023-05-21T06:51:13;10.67;;;9.57;;
8260;SDS011;64115;50.170;8.242;2023-05-21T06:53:40;10.77;;;9.73;;
8260;SDS011;64115;50.170;8.242;2023-05-21T06:56:07;11.33;;;9.73;;
8260;SDS011;64115;50.170;8.242;2023-05-21T06:58:34;12.50;;;9.73;;
8260;SDS011;64115;50.170;8.242;2023-05-21T07:01:01;11.07;;;9.90;;
8260;SDS011;64115;50.170;8.242;2023-05-21T07:03:28;10.43;;;9.37;;
8260;SDS011;64115;50.170;8.242;2023-05-21T07:05:56;10.77;;;9.77;;
8260;SDS011;64115;50.170;8.242;2023-05-21T07:08:25;10.67;;;9.57;;
8260;SDS011;64115;50.170;8.242;2023-05-21T07:10:52;9.93;;;9.00;;
8260;SDS011;64115;50.170;8.242;2023-05-21T07:13:20;10.30;;;9.37;;
8260;SDS011;64115;50.170;8.242;2023-05-21T07:15:47;12.37;;;9.23;;
8260;SDS011;64115;50.170;8.242;2023-05-21T07:18:14;10.70;;;9.70;;
8260;SDS011;64115;50.170;8.242;2023-05-21T07:20:48;10.53;;;9.23;;
8260;SDS011;64115;50.170;8.242;2023-05-21T07:23:15;9.77;;;8.87;;
8260;SDS011;64115;50.170;8.242;2023-05-21T07:25:44;10.27;;;9.23;;
8260;SDS011;64115;50.170;8.242;2023-05-21T07:28:11;9.97;;;9.07;;
8260;SDS011;64115;50.170;8.242;2023-05-21T07:30:38;13.33;;;9.57;;
8260;SDS011;64115;50.170;8.242;2023-05-21T07:33:05;10.17;;;9.07;;
8260;SDS011;64115;50.170;8.242;2023-05-21T07:35:33;10.10;;;9.10;;
8260;SDS011;64115;50.170;8.242;2023-05-21T07:38:00;10.20;;;9.20;;
8260;SDS011;64115;50.170;8.242;2023-05-21T07:40:27;9.63;;;8.83;;
8260;SDS011;64115;50.170;8.242;2023-05-21T07:42:56;9.87;;;8.63;;
8260;SDS011;64115;50.170;8.242;2023-05-21T07:45:25;9.17;;;8.27;;
8260;SDS011;64115;50.170;8.242;2023-05-21T07:47:52;9.23;;;8.40;;
8260;SDS011;64115;50.170;8.242;2023-05-21T07:50:19;9.50;;;8.70;;
8260;SDS011;64115;50.170;8.242;2023-05-21T07:52:47;8.60;;;7.93;;
8260;SDS011;64115;50.170;8.242;2023-05-21T07:55:14;8.77;;;7.97;;
8260;SDS011;64115;50.170;8.242;2023-05-21T07:57:41;9.57;;;7.87;;
8260;SDS011;64115;50.170;8.242;2023-05-21T08:00:11;8.83;;;8.13;;
8260;SDS011;64115;50.170;8.242;2023-05-21T08:02:39;8.73;;;8.03;;
8260;SDS011;64115;50.170;8.242;2023-05-21T08:05:07;9.43;;;8.53;;
8260;SDS011;64115;50.170;8.242;2023-05-21T08:07:36;11.63;;;8.40;;
8260;SDS011;64115;50.170;8.242;2023-05-21T08:10:04;8.57;;;7.77;;
8260;SDS011;64115;50.170;8.242;2023-05-21T08:24:11;8.73;;;8.07;;
8260;SDS011;64115;50.170;8.242;2023-05-21T08:26:40;9.27;;;8.47;;
8260;SDS011;64115;50.170;8.242;2023-05-21T08:29:13;9.37;;;8.57;;
8260;SDS011;64115;50.170;8.242;2023-05-21T08:31:41;9.43;;;8.53;;
8260;SDS011;64115;50.170;8.242;2023-05-21T08:34:09;9.00;;;8.27;;
8260;SDS011;64115;50.170;8.242;2023-05-21T08:36:40;8.93;;;8.03;;
8260;SDS011;64115;50.170;8.242;2023-05-21T08:39:15;9.20;;;8.40;;
8260;SDS011;64115;50.170;8.242;2023-05-21T08:41:42;9.43;;;8.60;;
8260;SDS011;64115;50.170;8.242;2023-05-21T08:44:13;9.23;;;8.43;;
8260;SDS011;64115;50.170;8.242;2023-05-21T08:46:45;9.70;;;8.80;;
8260;SDS011;64115;50.170;8.242;2023-05-21T08:49:16;9.30;;;8.50;;
8260;SDS011;64115;50.170;8.242;2023-05-21T08:51:49;9.33;;;8.53;;
8260;SDS011;64115;50.170;8.242;2023-05-21T08:54:19;9.70;;;8.87;;
8260;SDS011;64115;50.170;8.242;2023-05-21T08:56:47;9.47;;;8.57;;
8260;SDS011;64115;50.170;8.242;2023-05-21T08:59:15;8.87;;;8.07;;
8260;SDS011;64115;50.170;8.242;2023-05-21T09:01:43;9.57;;;8.67;;
8260;SDS011;64115;50.170;8.242;2023-05-21T09:04:11;8.90;;;8.03;;
8260;SDS011;64115;50.170;8.242;2023-05-21T09:06:40;8.40;;;7.80;;
8260;SDS011;64115;50.170;8.242;2023-05-21T09:09:10;9.13;;;8.43;;
8260;SDS011;64115;50.170;8.242;2023-05-21T09:11:45;9.23;;;8.43;;
8260;SDS011;64115;50.170;8.242;2023-05-21T09:14:13;9.30;;;8.60;;
8260;SDS011;64115;50.170;8.242;2023-05-21T09:16:45;9.43;;;8.57;;
8260;SDS011;64115;50.170;8.242;2023-05-21T09:19:13;9.17;;;8.37;;
8260;SDS011;64115;50.170;8.242;2023-05-21T09:21:40;10.00;;;9.00;;
8260;SDS011;64115;50.170;8.242;2023-05-21T09:24:08;9.80;;;8.90;;
8260;SDS011;64115;50.170;8.242;2023-05-21T09:26:51;9.63;;;8.63;;
8260;SDS011;64115;50.170;8.242;2023-05-21T09:29:20;10.23;;;9.23;;
8260;SDS011;64115;50.170;8.242;2023-05-21T09:31:48;10.40;;;9.40;;
8260;SDS011;64115;50.170;8.242;2023-05-21T09:34:16;9.70;;;8.77;;
8260;SDS011;64115;50.170;8.242;2023-05-21T09:36:43;9.83;;;9.03;;
8260;SDS011;64115;50.170;8.242;2023-05-21T09:39:11;10.17;;;9.20;;
8260;SDS011;64115;50.170;8.242;2023-05-21T09:58:14;10.30;;;9.30;;
8260;SDS011;64115;50.170;8.242;2023-05-21T10:01:26;9.93;;;8.93;;
8260;SDS011;64115;50.170;8.242;2023-05-21T10:04:11;10.17;;;9.27;;
8260;SDS011;64115;50.170;8.242;2023-05-21T10:09:55;9.37;;;8.57;;
8260;SDS011;64115;50.170;8.242;2023-05-21T10:27:46;9.37;;;8.47;;
8260;SDS011;64115;50.170;8.242;2023-05-21T10:38:08;8.70;;;7.90;;
8260;SDS011;64115;50.170;8.242;2023-05-21T10:40:44;8.63;;;8.00;;
8260;SDS011;64115;50.170;8.242;2023-05-21T10:46:00;9.00;;;8.20;;
8260;SDS011;64115;50.170;8.242;2023-05-21T10:48:52;8.53;;;7.77;;
8260;SDS011;64115;50.170;8.242;2023-05-21T10:55:01;8.10;;;7.40;;
8260;SDS011;64115;50.170;8.242;2023-05-21T10:58:05;8.73;;;7.90;;
8260;SDS011;64115;50.170;8.242;2023-05-21T11:01:15;8.30;;;7.60;;
8260;SDS011;64115;50.170;8.242;2023-05-21T11:03:50;8.37;;;7.67;;
8260;SDS011;64115;50.170;8.242;2023-05-21T11:06:35;8.33;;;7.57;;
8260;SDS011;64115;50.170;8.242;2023-05-21T11:09:11;8.57;;;7.67;;
8260;SDS011;64115;50.170;8.242;2023-05-21T11:11:55;7.57;;;6.87;;
8260;SDS011;64115;50.170;8.242;2023-05-21T11:14:34;8.03;;;7.10;;
8260;SDS011;64115;50.170;8.242;2023-05-21T11:17:14;7.10;;;6.60;;
8260;SDS011;64115;50.170;8.242;2023-05-21T11:19:47;7.20;;;6.60;;
8260;SDS011;64115;50.170;8.242;2023-05-21T11:22:29;7.60;;;7.10;;
8260;SDS011;64115;50.170;8.242;2023-05-21T11:25:01;7.70;;;6.90;;
8260;SDS011;64115;50.170;8.242;2023-05-21T11:27:33;7.67;;;7.07;;
8260;SDS011;64115;50.170;8.242;2023-05-21T11:30:13;7.67;;;7.03;;
8260;SDS011;64115;50.170;8.242;2023-05-21T11:35:59;6.57;;;6.07;;
8260;SDS011;64115;50.170;8.242;2023-05-21T11:38:27;6.93;;;6.23;;
8260;SDS011;64115;50.170;8.242;2023-05-21T11:41:00;7.47;;;6.80;;
8260;SDS011;64115;50.170;8.242;2023-05-21T11:43:29;8.03;;;7.23;;
8260;SDS011;64115;50.170;8.242;2023-05-21T11:45:56;8.10;;;7.37;;
8260;SDS011;64115;50.170;8.242;2023-05-21T11:48:24;7.63;;;6.93;;
8260;SDS011;64115;50.170;8.242;2023-05-21T11:50:52;7.50;;;7.00;;
8260;SDS011;64115;50.170;8.242;2023-05-21T11:53:21;8.03;;;7.33;;
8260;SDS011;64115;50.170;8.242;2023-05-21T11:55:49;6.37;;;5.83;;
8260;SDS011;64115;50.170;8.242;2023-05-21T11:58:21;6.43;;;5.93;;
8260;SDS011;64115;50.170;8.242;2023-05-21T12:00:49;7.40;;;6.90;;
8260;SDS011;64115;50.170;8.242;2023-05-21T12:03:16;7.30;;;6.80;;
8260;SDS011;64115;50.170;8.242;2023-05-21T12:05:52;7.57;;;6.97;;
8260;SDS011;64115;50.170;8.242;2023-05-21T12:08:31;7.70;;;7.20;;
8260;SDS011;64115;50.170;8.242;2023-05-21T12:10:59;7.47;;;6.87;;
8260;SDS011;64115;50.170;8.242;2023-05-21T12:13:31;7.97;;;7.37;;
8260;SDS011;64115;50.170;8.242;2023-05-21T12:15:58;7.37;;;6.80;;
8260;SDS011;64115;50.170;8.242;2023-05-21T12:18:26;7.87;;;7.27;;
8260;SDS011;64115;50.170;8.242;2023-05-21T12:20:56;9.47;;;7.53;;
8260;SDS011;64115;50.170;8.242;2023-05-21T12:23:23;7.60;;;6.90;;
8260;SDS011;64115;50.170;8.242;2023-05-21T12:25:53;7.90;;;7.30;;
8260;SDS011;64115;50.170;8.242;2023-05-21T12:28:21;5.97;;;5.47;;
8260;SDS011;64115;50.170;8.242;2023-05-21T12:30:48;7.30;;;6.60;;
8260;SDS011;64115;50.170;8.242;2023-05-21T12:33:17;6.73;;;6.23;;
8260;SDS011;64115;50.170;8.242;2023-05-21T12:35:45;7.30;;;6.70;;
8260;SDS011;64115;50.170;8.242;2023-05-21T12:38:14;6.83;;;6.33;;
8260;SDS011;64115;50.170;8.242;2023-05-21T12:40:42;6.43;;;5.83;;
8260;SDS011;64115;50.170;8.242;2023-05-21T12:43:11;6.43;;;5.93;;
8260;SDS011;64115;50.170;8.242;2023-05-21T12:45:39;6.37;;;5.90;;
8260;SDS011;64115;50.170;8.242;2023-05-21T12:48:06;7.10;;;6.50;;
8260;SDS011;64115;50.170;8.242;2023-05-21T12:50:33;7.40;;;6.67;;
8260;SDS011;64115;50.170;8.242;2023-05-21T12:53:07;6.80;;;6.27;;
8260;SDS011;64115;50.170;8.242;2023-05-21T12:55:38;7.17;;;6.57;;
8260;SDS011;64115;50.170;8.242;2023-05-21T12:58:07;7.37;;;6.77;;
8260;SDS011;64115;50.170;8.242;2023-05-21T13:00:42;6.33;;;5.93;;
8260;SDS011;64115;50.170;8.242;2023-05-21T13:03:14;6.97;;;6.33;;
8260;SDS011;64115;50.170;8.242;2023-05-21T13:05:43;6.70;;;5.97;;
8260;SDS011;64115;50.170;8.242;2023-05-21T13:08:11;10.67;;;6.77;;
8260;SDS011;64115;50.170;8.242;2023-05-21T13:10:40;6.23;;;5.73;;
8260;SDS011;64115;50.170;8.242;2023-05-21T13:13:13;6.17;;;5.77;;
8260;SDS011;64115;50.170;8.242;2023-05-21T13:15:54;7.50;;;6.80;;
8260;SDS011;64115;50.170;8.242;2023-05-21T13:18:23;6.70;;;6.17;;
8260;SDS011;64115;50.170;8.242;2023-05-21T13:21:07;6.57;;;5.97;;
8260;SDS011;64115;50.170;8.242;2023-05-21T13:23:48;6.80;;;6.30;;
8260;SDS011;64115;50.170;8.242;2023-05-21T13:26:30;6.63;;;5.63;;
8260;SDS011;64115;50.170;8.242;2023-05-21T13:29:09;6.63;;;6.07;;
8260;SDS011;64115;50.170;8.242;2023-05-21T13:35:02;6.80;;;6.20;;
8260;SDS011;64115;50.170;8.242;2023-05-21T13:37:29;6.83;;;6.23;;
8260;SDS011;64115;50.170;8.242;2023-05-21T13:39:57;6.77;;;6.27;;
8260;SDS011;64115;50.170;8.242;2023-05-21T13:42:29;6.93;;;6.40;;
8260;SDS011;64115;50.170;8.242;2023-05-21T13:45:18;6.10;;;5.60;;
8260;SDS011;64115;50.170;8.242;2023-05-21T13:48:02;6.30;;;5.80;;
8260;SDS011;64115;50.170;8.242;2023-05-21T13:50:42;6.43;;;6.03;;
8260;SDS011;64115;50.170;8.242;2023-05-21T13:53:20;6.60;;;6.10;;
8260;SDS011;64115;50.170;8.242;2023-05-21T13:55:53;6.53;;;6.03;;
8260;SDS011;64115;50.170;8.242;2023-05-21T13:58:30;7.30;;;6.60;;
8260;SDS011;64115;50.170;8.242;2023-05-21T14:00:59;6.63;;;6.13;;
8260;SDS011;64115;50.170;8.242;2023-05-21T14:03:59;6.90;;;6.30;;
8260;SDS011;64115;50.170;8.242;2023-05-21T14:06:30;7.07;;;6.57;;
8260;SDS011;64115;50.170;8.242;2023-05-21T14:08:59;6.40;;;6.00;;
8260;SDS011;64115;50.170;8.242;2023-05-21T14:11:27;6.87;;;6.23;;
8260;SDS011;64115;50.170;8.242;2023-05-21T14:13:54;7.30;;;6.70;;
8260;SDS011;64115;50.170;8.242;2023-05-21T14:16:22;6.90;;;6.40;;
8260;SDS011;64115;50.170;8.242;2023-05-21T14:18:51;8.13;;;6.67;;
8260;SDS011;64115;50.170;8.242;2023-05-21T14:21:26;6.73;;;6.13;;
8260;SDS011;64115;50.170;8.242;2023-05-21T14:23:55;6.67;;;6.17;;
8260;SDS011;64115;50.170;8.242;2023-05-21T14:26:23;6.37;;;5.97;;
8260;SDS011;64115;50.170;8.242;2023-05-21T14:28:53;6.90;;;6.30;;
8260;SDS011;64115;50.170;8.242;2023-05-21T14:31:21;6.60;;;6.10;;
8260;SDS011;64115;50.170;8.242;2023-05-21T14:33:51;6.27;;;5.70;;
8260;SDS011;64115;50.170;8.242;2023-05-21T14:36:20;6.90;;;6.30;;
8260;SDS011;64115;50.170;8.242;2023-05-21T14:38:50;6.70;;;6.20;;
8260;SDS011;64115;50.170;8.242;2023-05-21T14:41:18;6.73;;;6.23;;
8260;SDS011;64115;50.170;8.242;2023-05-21T14:44:04;8.27;;;6.40;;
8260;SDS011;64115;50.170;8.242;2023-05-21T14:46:31;6.90;;;6.30;;
8260;SDS011;64115;50.170;8.242;2023-05-21T14:49:00;6.97;;;6.33;;
8260;SDS011;64115;50.170;8.242;2023-05-21T14:51:29;6.30;;;5.80;;
8260;SDS011;64115;50.170;8.242;2023-05-21T14:53:56;6.47;;;5.87;;
8260;SDS011;64115;50.170;8.242;2023-05-21T14:56:25;6.73;;;5.70;;
8260;SDS011;64115;50.170;8.242;2023-05-21T14:58:53;6.80;;;6.30;;
8260;SDS011;64115;50.170;8.242;2023-05-21T15:01:21;7.00;;;6.40;;
8260;SDS011;64115;50.170;8.242;2023-05-21T15:03:48;6.37;;;5.77;;
8260;SDS011;64115;50.170;8.242;2023-05-21T15:06:15;6.90;;;6.30;;
8260;SDS011;64115;50.170;8.242;2023-05-21T15:08:48;6.63;;;6.20;;
8260;SDS011;64115;50.170;8.242;2023-05-21T15:11:15;6.23;;;5.70;;
8260;SDS011;64115;50.170;8.242;2023-05-21T15:13:42;6.33;;;5.87;;
8260;SDS011;64115;50.170;8.242;2023-05-21T15:16:11;6.93;;;6.27;;
8260;SDS011;64115;50.170;8.242;2023-05-21T15:18:39;7.13;;;6.43;;
8260;SDS011;64115;50.170;8.242;2023-05-21T15:21:07;6.37;;;5.80;;
8260;SDS011;64115;50.170;8.242;2023-05-21T15:23:34;6.77;;;6.17;;
8260;SDS011;64115;50.170;8.242;2023-05-21T15:26:03;6.70;;;5.93;;
8260;SDS011;64115;50.170;8.242;2023-05-21T15:28:30;6.37;;;5.93;;
8260;SDS011;64115;50.170;8.242;2023-05-21T15:30:57;8.57;;;6.57;;
8260;SDS011;64115;50.170;8.242;2023-05-21T15:33:25;6.30;;;5.90;;
8260;SDS011;64115;50.170;8.242;2023-05-21T15:35:52;6.47;;;6.00;;
8260;SDS011;64115;50.170;8.242;2023-05-21T15:38:19;6.90;;;6.20;;
8260;SDS011;64115;50.170;8.242;2023-05-21T15:40:47;7.17;;;6.10;;
8260;SDS011;64115;50.170;8.242;2023-05-21T15:43:15;5.80;;;5.40;;
8260;SDS011;64115;50.170;8.242;2023-05-21T15:45:42;5.97;;;5.57;;
8260;SDS011;64115;50.170;8.242;2023-05-21T15:48:10;6.37;;;5.87;;
8260;SDS011;64115;50.170;8.242;2023-05-21T15:50:37;6.70;;;6.03;;
8260;SDS011;64115;50.170;8.242;2023-05-21T15:53:04;6.50;;;6.10;;
8260;SDS011;64115;50.170;8.242;2023-05-21T15:55:33;6.27;;;5.67;;
8260;SDS011;64115;50.170;8.242;2023-05-21T15:58:01;6.40;;;5.80;;
8260;SDS011;64115;50.170;8.242;2023-05-21T16:03:55;6.03;;;5.63;;
8260;SDS011;64115;50.170;8.242;2023-05-21T16:06:22;5.83;;;5.43;;
8260;SDS011;64115;50.170;8.242;2023-05-21T16:09:11;6.50;;;6.00;;
8260;SDS011;64115;50.170;8.242;2023-05-21T16:11:44;6.20;;;5.80;;
8260;SDS011;64115;50.170;8.242;2023-05-21T16:14:31;6.53;;;5.93;;